Oswego, NY

1:14 PM EST on December 28, 2014 (GMT -0500)
East side Of Oswego | Change Station
CLOSE
Current Station
Personal Weather Station
Location: Oswego, NY
Elevation: 338 ft
Nearby Weather Stations

Elev 338 ft 43.45 °N, 76.50 °W | Updated 0 second ago

Overcast
Overcast
37.0 °F
Feels Like 30 °F
N
9.0
Wind Variable Wind from NNW
Gusts 14.0 mph

Today
High -- | Low -- °F
--% Chance of Precip.
Yesterday
High -- | Low -- °F
Precip. -- in
7:38 AM 4:37 PM
Waxing Crescent, 50% visible
Pressure 29.98 in
Visibility 10.0 miles
Clouds Overcast 2700 ft
Windchill 30 °F
Dew Point 28 °F
Humidity 69%
Rainfall 0.15 in
Snow Depth Not available.
UV 1 out of 12
Pollen .10 out of 12
Air Quality Not available.
Flu Activity Not available.
METAR KFZY 281754Z AUTO 28013G20KT 10SM OVC027 02/M03 A2997 RMK AO2 SLP152 60000 T00221033 10044 20022 53007

More Conditions Fewer Conditions

Pressure 29.98 in
Visibility 10.0 miles
Clouds Overcast 2700 ft
Windchill 30 °F
Dew Point 28 °F
Humidity 69%
Rainfall 0.15 in
Snow Depth Not available.
UV 1 out of 12
Pollen .10 out of 12
Air Quality Not available.
Flu Activity Not available.
METAR KFZY 281754Z AUTO 28013G20KT 10SM OVC027 02/M03 A2997 RMK AO2 SLP152 60000 T00221033 10044 20022 53007

More Conditions Fewer Conditions

10-Day Weather Forecast

Almanac

Astronomy

Dec. 28, 2014 Rise Set
Actual Time
Civil Twilight
Nautical Twilight
Astronomical Twilight
Moon
Length of Visible Light
Length of Day
Tomorrow will be .
, % of the Moon is Illuminated

Today's Extremes

State Highs State Lows

Community

WunderPhotos

Upload Photos

1,781,375 photos uploaded!

WunderBlogs® & News

Nearby

Air Quality

  Air Quality AQ Index Pollutant
Not available.

Snow Depth

Station Depth Elevation

Earthquake Activity

City Distance Mag. Time & Date
Minimum magnitude displayed is 2.5.

Coastal Water Temperatures

Place Temperature

Nearby Weather Stations